Not for real navigation | The accuracy of this data is not assured | See disclaimer for more information
ICAO NAME COUNTRY WIND Kt GUST Kt VIS TEMP/DEW BARO
ETHB Bueckeburg Germany 0 0 100 -3/-3 30.42
ETHB 310520Z AUTO 00000KT 0100 // ////// M03/M03 Q1030 ///
LIMK Torino / Bric Della Croce Italy 2 0 100 1/1 30.03
LIMK 310455Z 02002KT 0100 FG VV/// 01/01 Q1017 RMK VAL INVIS VIS MIN 0100
CYYT St. John's, Nfld Canada 8 0 200 -2/-2 29.88
CYYT 310500Z 05008KT 0.125SM R29/2000FT/N R16/2000FT/N FZFG VV002 M02/M02 A2988 RMK FG8 SLP128
LIVF Frontone Italy 3 0 200 3/2 30.00
LIVF 310455Z 08003KT 0200 FG VV/// 03/02 Q1016 RMK MON INVIS VAL INVIS VIS MIN 0200
LIBN Lecce Italy 1 0 300 7/6 29.91
LIBN 310455Z VRB01KT 0300 FG OVC004 07/06 Q1013 RMK OVC VIS MIN 0300 WIND THR14 VRB01KT WIND THR32 VRB01KT RED

Show more

Close Menu